createdAt,value
2023-03-29T00:00:41.984Z,2102.00
2023-03-29T00:01:42.071Z,2114.00
2023-03-29T00:02:42.091Z,2111.00
2023-03-29T00:03:42.020Z,2099.00
2023-03-29T00:04:42.030Z,2109.00
2023-03-29T00:05:41.928Z,2106.00
2023-03-29T00:06:41.944Z,2104.00
2023-03-29T00:07:41.941Z,2088.00
2023-03-29T00:08:41.995Z,2106.00
2023-03-29T00:09:41.924Z,2106.00
2023-03-29T00:10:42.791Z,2108.00
2023-03-29T00:11:42.409Z,2106.00
2023-03-29T00:12:41.971Z,2111.00
2023-03-29T00:13:41.921Z,2103.00
2023-03-29T00:14:41.914Z,2103.00
2023-03-29T00:15:41.906Z,2104.00
2023-03-29T00:16:41.926Z,2106.00
2023-03-29T00:17:41.938Z,2090.00
2023-03-29T00:18:41.950Z,2095.00
2023-03-29T00:19:41.881Z,2102.00
2023-03-29T00:20:41.826Z,2095.00
2023-03-29T00:21:41.867Z,2089.00
2023-03-29T00:22:41.780Z,2089.00
2023-03-29T00:23:41.754Z,2089.00
2023-03-29T00:24:41.735Z,2085.00
2023-03-29T00:25:42.304Z,2079.00
2023-03-29T00:26:41.650Z,2074.00
2023-03-29T00:27:41.600Z,2068.00
2023-03-29T00:28:41.552Z,2067.00
2023-03-29T00:29:41.534Z,2060.00
2023-03-29T00:30:41.510Z,2063.00
2023-03-29T00:31:41.571Z,2058.00
2023-03-29T00:32:41.520Z,2050.00
2023-03-29T00:33:41.477Z,2047.00
2023-03-29T00:34:41.396Z,2056.00
2023-03-29T00:35:41.420Z,2053.00
2023-03-29T00:36:41.347Z,2057.00
2023-03-29T00:37:41.403Z,2053.00
2023-03-29T00:38:41.297Z,2048.00
2023-03-29T00:39:41.253Z,2044.00
2023-03-29T00:40:41.220Z,2045.00
2023-03-29T00:41:41.811Z,2047.00
2023-03-29T00:42:41.152Z,2046.00
2023-03-29T00:43:41.093Z,2043.00
2023-03-29T00:44:41.069Z,2047.00
2023-03-29T00:45:41.041Z,2045.00
2023-03-29T00:46:41.061Z,2042.00
2023-03-29T00:47:41.098Z,2035.00
2023-03-29T00:48:40.952Z,2031.00
2023-03-29T00:49:40.912Z,2034.00
2023-03-29T00:50:40.893Z,2034.00
2023-03-29T00:51:40.856Z,2032.00
2023-03-29T00:52:40.829Z,2035.00
2023-03-29T00:53:40.809Z,2026.00
2023-03-29T00:54:40.792Z,2026.00
2023-03-29T00:55:40.763Z,2029.00
2023-03-29T00:56:40.809Z,2027.00
2023-03-29T00:57:40.709Z,2022.00
2023-03-29T00:58:40.674Z,2028.00
2023-03-29T00:59:40.651Z,2024.00
2023-03-29T01:00:40.617Z,2022.00
2023-03-29T01:01:40.612Z,2021.00
2023-03-29T01:02:40.658Z,2027.00
2023-03-29T01:03:40.562Z,2012.00
2023-03-29T01:04:40.483Z,2011.00
2023-03-29T01:05:40.495Z,2006.00
2023-03-29T01:06:40.472Z,2011.00
2023-03-29T01:07:40.455Z,2002.00
2023-03-29T01:08:40.465Z,1997.00
2023-03-29T01:09:40.439Z,2003.00
2023-03-29T01:10:40.446Z,1995.00
2023-03-29T01:11:40.438Z,1994.00
2023-03-29T01:12:40.412Z,1997.00
2023-03-29T01:13:40.388Z,1993.00
2023-03-29T01:14:40.358Z,1982.00
2023-03-29T01:15:40.337Z,1994.00
2023-03-29T01:16:40.338Z,1986.00
2023-03-29T01:17:40.302Z,1979.00
2023-03-29T01:18:40.216Z,1982.00
2023-03-29T01:19:40.164Z,1978.00
2023-03-29T01:20:40.121Z,1969.00
2023-03-29T01:21:40.085Z,1970.00
2023-03-29T01:22:40.032Z,1973.00
2023-03-29T01:23:40.011Z,1958.00
2023-03-29T01:24:39.962Z,1965.00
2023-03-29T01:25:39.932Z,1965.00
2023-03-29T01:26:39.891Z,1957.00
2023-03-29T01:27:40.342Z,1950.00
2023-03-29T01:28:39.821Z,1961.00
2023-03-29T01:29:39.858Z,1963.00
2023-03-29T01:30:39.747Z,1963.00
2023-03-29T01:31:39.757Z,1968.00
2023-03-29T01:32:39.703Z,1964.00
2023-03-29T01:33:39.655Z,1967.00
2023-03-29T01:34:39.605Z,1965.00
2023-03-29T01:35:39.594Z,1966.00
2023-03-29T01:36:39.589Z,1960.00
2023-03-29T01:37:39.502Z,1962.00
2023-03-29T01:38:39.489Z,1968.00
2023-03-29T01:39:39.441Z,1967.00
2023-03-29T01:40:39.396Z,1958.00
2023-03-29T01:41:39.349Z,1962.00
2023-03-29T01:42:39.324Z,1962.00
2023-03-29T01:43:39.283Z,1962.00
2023-03-29T01:44:39.223Z,1964.00
2023-03-29T01:45:39.281Z,1957.00
2023-03-29T01:46:39.406Z,1962.00
2023-03-29T01:47:39.876Z,1961.00
2023-03-29T01:48:39.133Z,1959.00
2023-03-29T01:49:39.140Z,1957.00
2023-03-29T01:50:39.173Z,1960.00
2023-03-29T01:51:39.188Z,1960.00
2023-03-29T01:52:39.129Z,1954.00
2023-03-29T01:53:39.082Z,1953.00
2023-03-29T01:54:39.088Z,1959.00
2023-03-29T01:55:39.074Z,1955.00
2023-03-29T01:56:39.109Z,1954.00
2023-03-29T01:57:39.073Z,1962.00
2023-03-29T01:58:39.064Z,1957.00
2023-03-29T01:59:39.108Z,1957.00
2023-03-29T02:00:39.048Z,1959.00
2023-03-29T02:01:39.105Z,1966.00
2023-03-29T02:02:39.088Z,1957.00
2023-03-29T02:03:39.072Z,1957.00
2023-03-29T02:04:39.037Z,1957.00
2023-03-29T02:05:39.137Z,1962.00
2023-03-29T02:06:39.113Z,1964.00
2023-03-29T02:07:39.016Z,1964.00
2023-03-29T02:08:39.014Z,1961.00
2023-03-29T02:09:39.007Z,1961.00
2023-03-29T02:10:39.011Z,1961.00
2023-03-29T02:11:39.005Z,1962.00
2023-03-29T02:12:39.012Z,1956.00
2023-03-29T02:13:38.997Z,1958.00
2023-03-29T02:14:38.986Z,1957.00
2023-03-29T02:15:39.019Z,1958.00
2023-03-29T02:16:38.980Z,1961.00
2023-03-29T02:17:39.064Z,1960.00
2023-03-29T02:18:38.973Z,1950.00
2023-03-29T02:19:38.969Z,1947.00
2023-03-29T02:20:39.160Z,1951.00
2023-03-29T02:21:38.950Z,1958.00
2023-03-29T02:22:38.939Z,1952.00
2023-03-29T02:23:38.945Z,1952.00
2023-03-29T02:24:38.928Z,1948.00
2023-03-29T02:25:38.907Z,1947.00
2023-03-29T02:26:38.875Z,1944.00
2023-03-29T02:27:38.903Z,1937.00
2023-03-29T02:28:38.867Z,1932.00
2023-03-29T02:29:38.864Z,1940.00
2023-03-29T02:30:38.827Z,1940.00
2023-03-29T02:31:38.901Z,1938.00
2023-03-29T02:32:38.839Z,1934.00
2023-03-29T02:33:38.798Z,1934.00
2023-03-29T02:34:38.876Z,1925.00
2023-03-29T02:35:38.814Z,1929.00
2023-03-29T02:36:39.923Z,1931.00
2023-03-29T02:37:38.736Z,1931.00
2023-03-29T02:38:38.735Z,1923.00
2023-03-29T02:39:38.788Z,1921.00
2023-03-29T02:40:38.722Z,1917.00
2023-03-29T02:41:38.714Z,1916.00
2023-03-29T02:42:38.697Z,1911.00
2023-03-29T02:43:38.682Z,1914.00
2023-03-29T02:44:38.682Z,1913.00
2023-03-29T02:45:38.659Z,1916.00
2023-03-29T02:46:38.706Z,1919.00
2023-03-29T02:47:38.701Z,1924.00
2023-03-29T02:48:38.864Z,1918.00
2023-03-29T02:49:38.637Z,1921.00
2023-03-29T02:50:38.684Z,1918.00
2023-03-29T02:51:38.619Z,1908.00
2023-03-29T02:52:38.612Z,1904.00
2023-03-29T02:53:38.601Z,1913.00
2023-03-29T02:54:38.586Z,1915.00
2023-03-29T02:55:38.583Z,1911.00
2023-03-29T02:56:38.601Z,1907.00
2023-03-29T02:57:38.578Z,1907.00
2023-03-29T02:58:38.571Z,1904.00
2023-03-29T02:59:38.582Z,1909.00
2023-03-29T03:00:38.551Z,1904.00
2023-03-29T03:01:38.587Z,1909.00
2023-03-29T03:02:38.775Z,1913.00
2023-03-29T03:03:38.627Z,1899.00
2023-03-29T03:04:38.512Z,1902.00
2023-03-29T03:05:38.521Z,1901.00
2023-03-29T03:06:38.518Z,1907.00
2023-03-29T03:07:38.479Z,1908.00
2023-03-29T03:08:38.464Z,1906.00
2023-03-29T03:09:38.465Z,1906.00
2023-03-29T03:10:38.447Z,1907.00
2023-03-29T03:11:38.435Z,1907.00
2023-03-29T03:12:38.413Z,1911.00
2023-03-29T03:13:38.389Z,1911.00
2023-03-29T03:14:38.370Z,1903.00
2023-03-29T03:15:38.364Z,1901.00
2023-03-29T03:16:38.399Z,1885.00
2023-03-29T03:17:38.375Z,1879.00
2023-03-29T03:18:38.344Z,1879.00
2023-03-29T03:19:38.327Z,1893.00
2023-03-29T03:20:38.315Z,1881.00
2023-03-29T03:21:38.316Z,1887.00
2023-03-29T03:22:38.377Z,1886.00
2023-03-29T03:23:38.296Z,1888.00
2023-03-29T03:24:38.868Z,1859.00
2023-03-29T03:25:38.282Z,1864.00
2023-03-29T03:26:38.314Z,1882.00
2023-03-29T03:27:38.351Z,1877.00
2023-03-29T03:28:38.350Z,1870.00
2023-03-29T03:29:38.425Z,1867.00
2023-03-29T03:30:38.401Z,1883.00
2023-03-29T03:31:38.446Z,1877.00
2023-03-29T03:32:38.527Z,1857.00
2023-03-29T03:33:38.461Z,1878.00
2023-03-29T03:34:38.490Z,1862.00
2023-03-29T03:35:38.516Z,1865.00
2023-03-29T03:36:38.538Z,1856.00
2023-03-29T03:37:38.556Z,1882.00
2023-03-29T03:38:38.645Z,1878.00
2023-03-29T03:39:38.559Z,1876.00
2023-03-29T03:40:38.575Z,1854.00
2023-03-29T03:41:38.609Z,1853.00
2023-03-29T03:42:38.583Z,1869.00
2023-03-29T03:43:38.561Z,1864.00
2023-03-29T03:44:38.543Z,1852.00
2023-03-29T03:45:38.624Z,1876.00
2023-03-29T03:46:38.585Z,1855.00
2023-03-29T03:47:38.641Z,1852.00
2023-03-29T03:48:38.753Z,1885.00
2023-03-29T03:49:38.650Z,1861.00
2023-03-29T03:50:38.666Z,1870.00
2023-03-29T03:51:38.692Z,1859.00
2023-03-29T03:52:38.701Z,1852.00
2023-03-29T03:53:38.729Z,1855.00
2023-03-29T03:54:38.739Z,1856.00
2023-03-29T03:55:38.751Z,1856.00
2023-03-29T03:56:39.417Z,1850.00
2023-03-29T03:57:38.781Z,1849.00
2023-03-29T03:58:38.798Z,1845.00
2023-03-29T03:59:38.819Z,1845.00
2023-03-29T04:00:38.845Z,1859.00
2023-03-29T04:01:38.873Z,1846.00
2023-03-29T04:02:38.945Z,1855.00
2023-03-29T04:03:38.969Z,1850.00
2023-03-29T04:04:38.949Z,1841.00
2023-03-29T04:05:38.963Z,1848.00
2023-03-29T04:06:40.182Z,1851.00
2023-03-29T04:07:39.006Z,1830.00
2023-03-29T04:08:39.013Z,1845.00
2023-03-29T04:09:39.007Z,1829.00
2023-03-29T04:10:38.995Z,1834.00
2023-03-29T04:11:39.062Z,1839.00
2023-03-29T04:12:38.978Z,1828.00
2023-03-29T04:13:38.963Z,1830.00
2023-03-29T04:14:38.928Z,1827.00
2023-03-29T04:15:38.938Z,1834.00
2023-03-29T04:16:38.877Z,1828.00
2023-03-29T04:17:39.008Z,1817.00
2023-03-29T04:18:38.887Z,1823.00
2023-03-29T04:19:38.834Z,1817.00
2023-03-29T04:20:38.805Z,1821.00
2023-03-29T04:21:38.775Z,1812.00
2023-03-29T04:22:38.768Z,1811.00
2023-03-29T04:23:38.738Z,1820.00
2023-03-29T04:24:38.727Z,1815.00
2023-03-29T04:25:38.707Z,1826.00
2023-03-29T04:26:38.729Z,1819.00
2023-03-29T04:27:38.702Z,1805.00
2023-03-29T04:28:38.695Z,1811.00
2023-03-29T04:29:38.711Z,1810.00
2023-03-29T04:30:38.760Z,1798.00
2023-03-29T04:31:38.815Z,1821.00
2023-03-29T04:32:38.829Z,1806.00
2023-03-29T04:33:38.761Z,1792.00
2023-03-29T04:34:38.791Z,1798.00
2023-03-29T04:35:38.838Z,1800.00
2023-03-29T04:36:38.799Z,1792.00
2023-03-29T04:37:38.788Z,1795.00
2023-03-29T04:38:38.811Z,1802.00
2023-03-29T04:39:38.813Z,1791.00
2023-03-29T04:40:38.820Z,1804.00
2023-03-29T04:41:38.813Z,1804.00
2023-03-29T04:42:38.819Z,1798.00
2023-03-29T04:43:40.260Z,1795.00
2023-03-29T04:44:38.802Z,1779.00
2023-03-29T04:45:38.784Z,1784.00
2023-03-29T04:46:38.802Z,1785.00
2023-03-29T04:47:38.799Z,1777.00
2023-03-29T04:48:38.741Z,1784.00
2023-03-29T04:49:38.742Z,1782.00
2023-03-29T04:50:38.730Z,1770.00
2023-03-29T04:51:38.721Z,1775.00
2023-03-29T04:52:38.687Z,1781.00
2023-03-29T04:53:38.679Z,1780.00
2023-03-29T04:54:38.644Z,1781.00
2023-03-29T04:55:38.615Z,1784.00
2023-03-29T04:56:38.606Z,1784.00
2023-03-29T04:57:38.545Z,1768.00
2023-03-29T04:58:38.521Z,1770.00
2023-03-29T04:59:38.520Z,1763.00
2023-03-29T05:00:38.553Z,1741.00
2023-03-29T05:01:38.630Z,1770.00
2023-03-29T05:02:38.666Z,1759.00
2023-03-29T05:03:38.654Z,1765.00
2023-03-29T05:04:38.710Z,1756.00
2023-03-29T05:05:38.722Z,1749.00
2023-03-29T05:06:38.734Z,1765.00
2023-03-29T05:07:38.751Z,1747.00
2023-03-29T05:08:38.789Z,1747.00
2023-03-29T05:09:38.829Z,1764.00
2023-03-29T05:10:38.858Z,1751.00
2023-03-29T05:11:38.896Z,1756.00
2023-03-29T05:12:38.936Z,1758.00
2023-03-29T05:13:38.971Z,1746.00
2023-03-29T05:14:38.999Z,1750.00
2023-03-29T05:15:40.795Z,1748.00
2023-03-29T05:16:39.129Z,1743.00
2023-03-29T05:17:39.154Z,1728.00
2023-03-29T05:18:39.121Z,1748.00
2023-03-29T05:19:39.154Z,1736.00
2023-03-29T05:20:39.180Z,1750.00
2023-03-29T05:21:39.213Z,1743.00
2023-03-29T05:22:39.232Z,1737.00
2023-03-29T05:23:39.267Z,1722.00
2023-03-29T05:24:39.419Z,1731.00
2023-03-29T05:25:39.314Z,1760.00
2023-03-29T05:26:39.366Z,1763.00
2023-03-29T05:27:39.393Z,1802.00
2023-03-29T05:28:39.469Z,1808.00
2023-03-29T05:29:39.466Z,1792.00
2023-03-29T05:30:39.500Z,1669.00
2023-03-29T05:31:39.584Z,1319.00
2023-03-29T05:32:40.470Z,1191.00
2023-03-29T05:33:39.489Z,988.00
2023-03-29T05:34:39.500Z,901.00
2023-03-29T05:35:39.472Z,960.00
2023-03-29T05:36:39.412Z,1127.00
2023-03-29T05:37:39.385Z,1241.00
2023-03-29T05:38:39.386Z,1364.00
2023-03-29T05:39:39.366Z,1511.00
2023-03-29T05:40:39.369Z,1624.00
2023-03-29T05:41:39.400Z,1692.00
2023-03-29T05:42:39.409Z,1816.00
2023-03-29T05:43:39.430Z,1893.00
2023-03-29T05:44:39.423Z,1981.00
2023-03-29T05:45:39.468Z,2043.00
2023-03-29T05:46:39.484Z,2114.00
2023-03-29T05:47:39.411Z,2208.00
2023-03-29T05:48:39.372Z,2281.00
2023-03-29T05:49:39.349Z,2351.00
2023-03-29T05:50:39.318Z,2412.00
2023-03-29T05:51:39.289Z,2474.00
2023-03-29T05:52:39.249Z,2520.00
2023-03-29T05:53:39.205Z,2597.00
2023-03-29T05:54:39.159Z,2563.00
2023-03-29T05:55:39.443Z,2367.00
2023-03-29T05:56:39.150Z,2137.00
2023-03-29T05:57:39.120Z,1927.00
2023-03-29T05:58:39.158Z,1932.00
2023-03-29T05:59:39.075Z,2039.00
2023-03-29T06:00:39.065Z,2088.00
2023-03-29T06:01:39.055Z,2163.00
2023-03-29T06:02:39.107Z,2187.00
2023-03-29T06:03:39.171Z,2255.00
2023-03-29T06:04:39.208Z,2300.00
2023-03-29T06:05:38.972Z,2354.00
2023-03-29T06:06:38.939Z,2387.00
2023-03-29T06:07:38.903Z,2460.00
2023-03-29T06:08:38.838Z,2560.00
2023-03-29T06:09:38.804Z,2616.00
2023-03-29T06:10:38.759Z,2654.00
2023-03-29T06:11:38.704Z,2689.00
2023-03-29T06:12:38.645Z,2743.00
2023-03-29T06:13:38.597Z,2799.00
2023-03-29T06:14:38.569Z,2847.00
2023-03-29T06:15:38.558Z,2876.00
2023-03-29T06:16:40.192Z,2935.00
2023-03-29T06:17:38.540Z,2985.00
2023-03-29T06:18:38.432Z,3017.00
2023-03-29T06:19:38.374Z,3061.00
2023-03-29T06:20:38.308Z,3107.00
2023-03-29T06:21:38.248Z,3173.00
2023-03-29T06:22:38.185Z,3071.00
2023-03-29T06:23:38.113Z,3005.00
2023-03-29T06:24:38.050Z,2968.00
2023-03-29T06:25:37.990Z,2557.00
2023-03-29T06:26:37.933Z,2265.00
2023-03-29T06:27:37.879Z,2256.00
2023-03-29T06:28:37.831Z,2310.00
2023-03-29T06:29:37.775Z,2380.00
2023-03-29T06:30:37.716Z,2368.00
2023-03-29T06:31:37.683Z,2398.00
2023-03-29T06:32:37.655Z,2487.00
2023-03-29T06:33:37.519Z,2486.00
2023-03-29T06:34:38.572Z,2497.00
2023-03-29T06:35:38.054Z,2526.00
2023-03-29T06:36:39.372Z,2528.00
2023-03-29T06:37:38.875Z,2535.00
2023-03-29T06:38:37.427Z,2565.00
2023-03-29T06:39:37.948Z,2623.00
2023-03-29T06:40:38.872Z,2683.00
2023-03-29T06:41:37.357Z,2703.00
2023-03-29T06:42:37.457Z,2724.00
2023-03-29T06:43:37.256Z,2729.00
2023-03-29T06:44:37.195Z,2749.00
2023-03-29T06:45:37.144Z,2785.00
2023-03-29T06:46:37.150Z,2800.00
2023-03-29T06:47:37.106Z,2792.00
2023-03-29T06:48:37.958Z,2809.00
2023-03-29T06:49:36.935Z,2737.00
2023-03-29T06:50:36.903Z,2766.00
2023-03-29T06:51:36.861Z,2785.00
2023-03-29T06:52:36.852Z,2781.00
2023-03-29T06:53:36.801Z,2785.00
2023-03-29T06:54:36.732Z,2785.00
2023-03-29T06:55:36.684Z,2759.00
2023-03-29T06:56:36.959Z,2748.00
2023-03-29T06:57:36.580Z,2704.00
2023-03-29T06:58:36.546Z,2690.00
2023-03-29T06:59:36.482Z,2719.00
2023-03-29T07:00:36.412Z,2680.00
2023-03-29T07:01:36.389Z,2732.00
2023-03-29T07:02:36.296Z,2759.00
2023-03-29T07:03:36.254Z,2772.00
2023-03-29T07:04:38.048Z,2790.00
2023-03-29T07:05:36.126Z,2790.00
2023-03-29T07:06:36.079Z,2791.00
2023-03-29T07:07:36.026Z,2789.00
2023-03-29T07:08:35.993Z,2804.00
2023-03-29T07:09:37.998Z,2820.00
2023-03-29T07:10:35.925Z,2841.00
2023-03-29T07:11:35.891Z,2856.00
2023-03-29T07:12:35.851Z,2849.00
2023-03-29T07:13:35.788Z,2848.00
2023-03-29T07:14:35.756Z,2831.00
2023-03-29T07:15:35.732Z,2778.00
2023-03-29T07:16:35.748Z,2776.00
2023-03-29T07:17:35.656Z,2781.00
2023-03-29T07:18:35.632Z,2801.00
2023-03-29T07:19:35.553Z,2805.00
2023-03-29T07:20:35.503Z,2869.00
2023-03-29T07:21:37.862Z,2683.00
2023-03-29T07:22:35.508Z,2433.00
2023-03-29T07:23:35.480Z,1760.00
2023-03-29T07:24:35.515Z,1577.00
2023-03-29T07:25:35.462Z,1560.00
2023-03-29T07:26:35.436Z,1547.00
2023-03-29T07:27:35.421Z,1550.00
2023-03-29T07:28:35.429Z,1514.00
2023-03-29T07:29:35.433Z,1557.00
2023-03-29T07:30:35.445Z,1557.00
2023-03-29T07:31:35.454Z,1587.00
2023-03-29T07:32:35.549Z,1583.00
2023-03-29T07:33:35.502Z,1654.00
2023-03-29T07:34:35.417Z,1707.00
2023-03-29T07:35:35.417Z,1630.00
2023-03-29T07:36:35.970Z,1668.00
2023-03-29T07:37:35.345Z,1673.00
2023-03-29T07:38:35.317Z,1669.00
2023-03-29T07:39:35.293Z,1705.00
2023-03-29T07:40:35.265Z,1704.00
2023-03-29T07:41:35.235Z,1765.00
2023-03-29T07:42:35.195Z,1796.00
2023-03-29T07:43:35.156Z,1811.00
2023-03-29T07:44:35.122Z,1775.00
2023-03-29T07:45:35.114Z,1800.00
2023-03-29T07:46:35.033Z,1835.00
2023-03-29T07:47:35.027Z,1827.00
2023-03-29T07:48:35.021Z,1913.00
2023-03-29T07:49:34.986Z,1939.00
2023-03-29T07:50:34.862Z,1955.00
2023-03-29T07:51:34.805Z,1939.00
2023-03-29T07:52:34.773Z,1969.00
2023-03-29T07:53:34.738Z,1891.00
2023-03-29T07:54:34.649Z,1845.00
2023-03-29T07:55:34.600Z,1892.00
2023-03-29T07:56:34.576Z,1918.00
2023-03-29T07:57:34.498Z,1987.00
2023-03-29T07:58:34.458Z,1981.00
2023-03-29T07:59:34.420Z,1984.00
2023-03-29T08:00:34.476Z,1969.00
2023-03-29T08:01:34.291Z,1925.00
2023-03-29T08:02:34.363Z,1985.00
2023-03-29T08:03:34.206Z,2024.00
2023-03-29T08:04:34.337Z,2021.00
2023-03-29T08:05:41.147Z,2028.00
2023-03-29T08:06:34.995Z,2030.00
2023-03-29T08:07:33.929Z,2031.00
2023-03-29T08:08:33.869Z,2040.00
2023-03-29T08:09:33.792Z,2051.00
2023-03-29T08:10:33.745Z,2045.00
2023-03-29T08:11:33.680Z,2053.00
2023-03-29T08:12:34.483Z,2137.00
2023-03-29T08:13:33.614Z,2165.00
2023-03-29T08:14:33.472Z,2100.00
2023-03-29T08:15:33.423Z,1956.00
2023-03-29T08:16:33.427Z,1733.00
2023-03-29T08:17:33.347Z,1263.00
2023-03-29T08:18:34.837Z,1090.00
2023-03-29T08:19:33.218Z,1166.00
2023-03-29T08:20:33.164Z,927.00
2023-03-29T08:21:33.132Z,961.00
2023-03-29T08:22:33.119Z,1067.00
2023-03-29T08:23:33.108Z,1154.00
2023-03-29T08:24:33.121Z,1297.00
2023-03-29T08:25:33.129Z,1411.00
2023-03-29T08:26:33.930Z,1347.00
2023-03-29T08:27:33.165Z,1304.00
2023-03-29T08:28:33.175Z,1444.00
2023-03-29T08:29:33.990Z,1566.00
2023-03-29T08:30:33.193Z,1661.00
2023-03-29T08:31:33.154Z,1740.00
2023-03-29T08:32:33.127Z,1821.00
2023-03-29T08:33:33.075Z,1910.00
2023-03-29T08:34:33.038Z,1954.00
2023-03-29T08:35:33.057Z,2005.00
2023-03-29T08:36:32.951Z,2056.00
2023-03-29T08:37:32.963Z,2081.00
2023-03-29T08:38:32.842Z,2141.00
2023-03-29T08:39:32.815Z,2160.00
2023-03-29T08:40:32.776Z,2209.00
2023-03-29T08:41:32.738Z,2264.00
2023-03-29T08:42:32.721Z,2284.00
2023-03-29T08:43:32.693Z,2331.00
2023-03-29T08:44:32.643Z,2351.00
2023-03-29T08:45:32.628Z,2388.00
2023-03-29T08:46:35.351Z,2424.00
2023-03-29T08:47:32.599Z,2471.00
2023-03-29T08:48:33.518Z,2495.00
2023-03-29T08:49:33.000Z,2522.00
2023-03-29T08:50:32.412Z,2531.00
2023-03-29T08:51:33.359Z,2534.00
2023-03-29T08:52:32.348Z,2545.00
2023-03-29T08:53:32.290Z,2566.00
2023-03-29T08:54:32.184Z,2613.00
2023-03-29T08:55:32.120Z,2684.00
2023-03-29T08:56:34.133Z,2723.00
2023-03-29T08:57:32.008Z,2750.00
2023-03-29T08:58:31.946Z,2762.00
2023-03-29T08:59:31.883Z,2804.00
2023-03-29T09:00:31.878Z,2832.00
2023-03-29T09:01:31.957Z,2850.00
2023-03-29T09:02:31.940Z,2886.00
2023-03-29T09:03:31.966Z,2916.00
2023-03-29T09:04:31.834Z,2965.00
2023-03-29T09:05:31.820Z,2993.00
2023-03-29T09:06:31.819Z,3009.00
2023-03-29T09:07:31.794Z,3035.00
2023-03-29T09:08:31.794Z,3049.00
2023-03-29T09:09:31.778Z,3080.00
2023-03-29T09:10:31.755Z,3098.00
2023-03-29T09:11:31.739Z,3127.00
2023-03-29T09:12:31.730Z,3135.00
2023-03-29T09:13:31.802Z,3154.00
2023-03-29T09:14:31.677Z,3163.00
2023-03-29T09:15:31.652Z,3184.00
2023-03-29T09:16:31.719Z,3212.00
2023-03-29T09:17:31.663Z,3346.00
2023-03-29T09:18:31.622Z,3334.00
2023-03-29T09:19:31.584Z,3327.00
2023-03-29T09:20:31.553Z,3288.00
2023-03-29T09:21:32.022Z,3258.00
2023-03-29T09:22:31.529Z,3274.00
2023-03-29T09:23:31.504Z,3236.00
2023-03-29T09:24:31.507Z,3236.00
2023-03-29T09:25:36.247Z,3211.00
2023-03-29T09:26:32.481Z,3213.00
2023-03-29T09:27:31.368Z,3214.00
2023-03-29T09:28:31.290Z,3214.00
2023-03-29T09:29:31.249Z,3207.00
2023-03-29T09:30:31.179Z,3210.00
2023-03-29T09:31:31.160Z,3204.00
2023-03-29T09:32:31.083Z,3196.00
2023-03-29T09:33:30.995Z,3176.00
2023-03-29T09:34:30.967Z,3174.00
2023-03-29T09:35:31.015Z,3159.00
2023-03-29T09:36:30.940Z,3153.00
2023-03-29T09:37:30.934Z,3148.00
2023-03-29T09:38:30.923Z,3165.00
2023-03-29T09:39:30.911Z,3156.00
2023-03-29T09:40:30.878Z,3145.00
2023-03-29T09:41:30.843Z,3126.00
2023-03-29T09:42:30.782Z,3128.00
2023-03-29T09:43:30.731Z,3114.00
2023-03-29T09:44:31.692Z,3107.00
2023-03-29T09:45:30.680Z,3090.00
2023-03-29T09:46:30.594Z,3105.00
2023-03-29T09:47:30.543Z,3096.00
2023-03-29T09:48:30.509Z,3076.00
2023-03-29T09:49:30.522Z,3073.00
2023-03-29T09:50:32.262Z,3071.00
2023-03-29T09:51:30.333Z,3064.00
2023-03-29T09:52:30.292Z,3047.00
2023-03-29T09:53:30.246Z,3034.00
2023-03-29T09:54:30.199Z,3043.00
2023-03-29T09:55:30.169Z,3019.00
2023-03-29T09:56:30.117Z,3007.00
2023-03-29T09:57:30.157Z,3016.00
2023-03-29T09:58:30.023Z,3017.00
2023-03-29T09:59:29.987Z,3013.00
2023-03-29T10:00:29.929Z,3002.00
2023-03-29T10:01:29.906Z,2990.00
2023-03-29T10:02:29.865Z,2985.00
2023-03-29T10:03:29.883Z,2974.00
2023-03-29T10:04:29.807Z,2976.00
2023-03-29T10:05:29.720Z,2969.00
2023-03-29T10:06:29.675Z,2974.00
2023-03-29T10:07:29.658Z,2950.00
2023-03-29T10:08:29.622Z,2939.00
2023-03-29T10:09:29.555Z,2934.00
2023-03-29T10:10:29.511Z,2937.00
2023-03-29T10:11:29.501Z,2930.00
2023-03-29T10:12:29.436Z,2913.00
2023-03-29T10:13:29.411Z,2930.00
2023-03-29T10:14:29.364Z,2915.00
2023-03-29T10:15:30.367Z,2898.00
2023-03-29T10:16:29.351Z,2890.00
2023-03-29T10:17:29.294Z,2890.00
2023-03-29T10:18:29.243Z,2895.00
2023-03-29T10:19:29.206Z,2888.00
2023-03-29T10:20:29.963Z,2871.00
2023-03-29T10:21:29.116Z,2880.00
2023-03-29T10:22:29.096Z,2858.00
2023-03-29T10:23:29.056Z,2839.00
2023-03-29T10:24:29.042Z,2850.00
2023-03-29T10:25:29.016Z,2818.00
2023-03-29T10:26:29.030Z,2842.00
2023-03-29T10:27:28.977Z,2846.00
2023-03-29T10:28:28.909Z,2819.00
2023-03-29T10:29:28.881Z,2812.00
2023-03-29T10:30:28.841Z,2800.00
2023-03-29T10:31:28.855Z,2810.00
2023-03-29T10:32:28.884Z,2793.00
2023-03-29T10:33:28.751Z,2801.00
2023-03-29T10:34:28.770Z,2764.00
2023-03-29T10:35:28.691Z,2780.00
2023-03-29T10:36:28.652Z,2770.00
2023-03-29T10:37:28.633Z,2758.00
2023-03-29T10:38:28.604Z,2741.00
2023-03-29T10:39:28.576Z,2742.00
2023-03-29T10:40:28.542Z,2744.00
2023-03-29T10:41:28.516Z,2729.00
2023-03-29T10:42:29.056Z,2718.00
2023-03-29T10:43:28.465Z,2717.00
2023-03-29T10:44:29.768Z,2701.00
2023-03-29T10:45:28.514Z,2705.00
2023-03-29T10:46:28.541Z,2694.00
2023-03-29T10:47:28.453Z,2693.00
2023-03-29T10:48:28.421Z,2679.00
2023-03-29T10:49:28.392Z,2672.00
2023-03-29T10:50:28.367Z,2663.00
2023-03-29T10:51:28.325Z,2670.00
2023-03-29T10:52:28.311Z,2665.00
2023-03-29T10:53:28.272Z,2646.00
2023-03-29T10:54:28.238Z,2650.00
2023-03-29T10:55:28.214Z,2631.00
2023-03-29T10:56:28.183Z,2627.00
2023-03-29T10:57:28.240Z,2633.00
2023-03-29T10:58:28.177Z,2617.00
2023-03-29T10:59:28.097Z,2607.00
2023-03-29T11:00:28.083Z,2601.00
2023-03-29T11:01:28.093Z,2610.00
2023-03-29T11:02:28.165Z,2586.00
2023-03-29T11:03:28.179Z,2596.00
2023-03-29T11:04:27.976Z,2578.00
2023-03-29T11:05:28.015Z,2571.00
2023-03-29T11:06:28.569Z,2570.00
2023-03-29T11:07:27.984Z,2558.00
2023-03-29T11:08:30.420Z,2562.00
2023-03-29T11:09:27.817Z,2572.00
2023-03-29T11:10:28.061Z,2541.00
2023-03-29T11:11:27.703Z,2544.00
2023-03-29T11:12:27.689Z,2545.00
2023-03-29T11:13:27.589Z,2527.00
2023-03-29T11:14:27.510Z,2523.00
2023-03-29T11:15:27.442Z,2528.00
2023-03-29T11:16:27.394Z,2502.00
2023-03-29T11:17:27.355Z,2503.00
2023-03-29T11:18:27.319Z,2494.00
2023-03-29T11:19:27.177Z,2484.00
2023-03-29T11:20:27.135Z,2476.00
2023-03-29T11:21:27.043Z,2471.00
2023-03-29T11:22:26.976Z,2461.00
2023-03-29T11:23:26.911Z,2464.00
2023-03-29T11:24:26.861Z,2466.00
2023-03-29T11:25:29.548Z,2470.00
2023-03-29T11:26:26.728Z,2467.00
2023-03-29T11:27:26.653Z,2464.00
2023-03-29T11:28:26.596Z,2454.00
2023-03-29T11:29:26.543Z,2442.00
2023-03-29T11:30:26.494Z,2441.00
2023-03-29T11:31:26.474Z,2430.00
2023-03-29T11:32:26.378Z,2424.00
2023-03-29T11:33:26.312Z,2421.00
2023-03-29T11:34:26.263Z,2421.00
2023-03-29T11:35:26.263Z,2417.00
2023-03-29T11:36:26.138Z,2412.00
2023-03-29T11:37:26.095Z,2408.00
2023-03-29T11:38:26.048Z,2402.00
2023-03-29T11:39:25.961Z,2401.00
2023-03-29T11:40:25.902Z,2397.00
2023-03-29T11:41:25.846Z,2385.00
2023-03-29T11:42:26.494Z,2387.00
2023-03-29T11:43:25.712Z,2369.00
2023-03-29T11:44:25.661Z,2382.00
2023-03-29T11:45:25.598Z,2369.00
2023-03-29T11:46:25.568Z,2365.00
2023-03-29T11:47:25.528Z,2346.00
2023-03-29T11:48:25.452Z,2363.00
2023-03-29T11:49:25.373Z,2347.00
2023-03-29T11:50:25.309Z,2342.00
2023-03-29T11:51:25.257Z,2333.00
2023-03-29T11:52:25.188Z,2336.00
2023-03-29T11:53:25.156Z,2334.00
2023-03-29T11:54:25.108Z,2325.00
2023-03-29T11:55:25.043Z,2325.00
2023-03-29T11:56:24.988Z,2321.00
2023-03-29T11:57:25.085Z,2315.00
2023-03-29T11:58:25.185Z,2312.00
2023-03-29T11:59:24.837Z,2292.00
2023-03-29T12:00:24.790Z,2303.00
2023-03-29T12:01:24.743Z,2308.00
2023-03-29T12:02:24.847Z,2289.00
2023-03-29T12:03:24.763Z,2282.00
2023-03-29T12:04:24.898Z,2283.00
2023-03-29T12:05:24.544Z,2276.00